Time;durP1;ratioP1;P1;durP2;ratioP2;P2;SDS_P1;SDS_P2;PMS_P1;PMS_P2;Temp;Humidity;BMP_temperature;BMP_pressure;BME280_temperature;BME280_humidity;BME280_pressure;Samples;Min_cycle;Max_cycle;Signal;HPM_P1;HPM_P2
2023/10/25 05:12:58;;;;;;;;;;;;;;;5.30;100.00;98102.88;5558275;23;19969;-88
2023/10/25 05:15:25;;;;;;;;;;;;;;;5.27;100.00;98104.72;5013154;28;20338;-92
2023/10/25 05:17:50;;;;;;;;;;;;;;;5.31;100.00;98102.78;5012628;28;19921;-91
2023/10/25 05:20:16;;;;;;;;;;;;;;;5.25;100.00;98096.06;5003378;28;19929;-89
2023/10/25 05:22:42;;;;;;;;;;;;;;;5.33;100.00;98093.09;5012779;28;19964;-90
2023/10/25 05:25:08;;;;;;;;;;;;;;;5.33;100.00;98093.09;5012630;28;20012;-92
2023/10/25 05:27:34;;;;;;;;;;;;;;;5.34;100.00;98083.41;5011572;28;20292;-90
2023/10/25 05:30:03;;;;;;;;;;;;;;;5.38;100.00;98083.19;5012815;28;19918;-89
2023/10/25 05:32:29;;;;;;;;;;;;;;;5.39;100.00;98081.41;5012868;28;19917;-90
2023/10/25 05:34:56;;;;;;;;;;;;;;;5.34;100.00;98083.41;5002856;28;19917;-91
2023/10/25 05:37:21;;;;;;;;;;;;;;;5.38;100.00;98084.97;5012492;28;19917;-91
2023/10/25 05:39:46;;;;;;;;;;;;;;;5.32;100.00;98078.25;5012567;28;19944;-91
2023/10/25 05:42:19;;;;;;;;;;;;;;;5.37;100.00;98078.03;5011038;28;20288;-90
2023/10/25 05:44:45;;;;;;;;;;;;;;;5.34;100.00;98071.13;5012713;28;19929;-92
2023/10/25 05:47:10;;;;;;;;;;;;;;;5.37;100.00;98068.34;5012447;28;20004;-91
2023/10/25 05:49:35;;;;;;;;;;;;;;;5.38;100.00;98063.97;5013226;28;19988;-91
2023/10/25 05:52:01;;;;;;;;;;;;;;;5.42;100.00;98065.50;5012636;28;19922;-92
2023/10/25 05:54:26;;;;;;;;;;;;;;;5.43;100.00;98057.56;5011339;28;20353;-92
2023/10/25 05:56:54;;;;;;;;;;;;;;;5.38;100.00;98051.69;5001332;28;19933;-91
2023/10/25 05:59:25;;;;;;;;;;;;;;;5.38;100.00;98058.72;5012455;28;19927;-91
2023/10/25 06:01:53;;;;;;;;;;;;;;;5.44;100.00;98043.50;5018337;28;20331;-92
2023/10/25 06:04:19;;;;;;;;;;;;;;;5.47;100.00;98050.34;5011652;28;19921;-92
2023/10/25 06:06:47;;;;;;;;;;;;;;;5.48;100.00;98038.94;5003372;28;19921;-92
2023/10/25 06:09:13;;;;;;;;;;;;;;;5.56;100.00;98038.56;5006263;28;20258;-91
2023/10/25 06:11:39;;;;;;;;;;;;;;;5.56;100.00;98026.25;5015419;28;19924;-90
2023/10/25 06:14:07;;;;;;;;;;;;;;;5.59;100.00;98020.00;5006107;28;20432;-91
2023/10/25 06:16:48;;;;;;;;;;;;;;;5.65;100.00;98011.81;5019689;28;20400;-96
2023/10/25 06:19:21;;;;;;;;;;;;;;;5.67;100.00;98001.22;5021342;28;19949;-91
2023/10/25 06:21:46;;;;;;;;;;;;;;;5.69;100.00;97999.38;5006551;28;20292;-86
2023/10/25 06:24:12;;;;;;;;;;;;;;;5.70;100.00;98001.06;5015915;28;19917;-91
2023/10/25 06:26:37;;;;;;;;;;;;;;;5.73;100.00;97987.78;5015568;28;20358;-90
2023/10/25 06:29:20;;;;;;;;;;;;;;;5.74;100.00;97984.19;5015515;28;20457;-92
2023/10/25 06:31:53;;;;;;;;;;;;;;;5.74;100.00;97989.47;5016001;28;19917;-90
2023/10/25 06:34:19;;;;;;;;;;;;;;;5.63;100.00;97990.88;5015747;28;20293;-91
2023/10/25 06:36:44;;;;;;;;;;;;;;;5.72;100.00;97986.06;5015816;28;19926;-91
2023/10/25 06:39:10;;;;;;;;;;;;;;;5.71;100.00;97981.72;5016036;28;19924;-90
2023/10/25 06:41:36;;;;;;;;;;;;;;;5.75;100.00;97978.03;5005487;28;20012;-90
2023/10/25 06:44:02;;;;;;;;;;;;;;;5.79;100.00;97971.66;5015201;28;19936;-92
2023/10/25 06:46:36;;;;;;;;;;;;;;;5.74;100.00;97973.69;5005844;28;19971;-91
2023/10/25 06:49:01;;;;;;;;;;;;;;;5.78;100.00;97983.97;5005862;28;19932;-89
2023/10/25 06:51:32;;;;;;;;;;;;;;;5.80;100.00;97968.97;5015376;28;20012;-91
2023/10/25 06:54:02;;;;;;;;;;;;;;;5.80;100.00;97961.06;5005674;28;19924;-90
2023/10/25 06:56:29;;;;;;;;;;;;;;;5.87;100.00;97959.00;5005392;28;19971;-89
2023/10/25 06:59:15;;;;;;;;;;;;;;;5.86;100.00;97953.81;5004262;28;19950;-91
2023/10/25 07:02:00;;;;;;;;;;;;;;;5.90;100.00;97950.91;5006123;28;19917;-90
2023/10/25 07:04:27;;;;;;;;;;;;;;;5.92;100.00;97938.56;5004502;28;20012;-89
2023/10/25 07:06:54;;;;;;;;;;;;;;;5.87;100.00;97943.22;5021144;28;19921;-90
2023/10/25 07:09:19;;;;;;;;;;;;;;;5.90;100.00;97947.44;5021431;28;19929;-89
2023/10/25 07:56:34;;;;;;;;;;;;;;;6.14;100.00;97863.78;5110632;23;19932;-87
2023/10/25 07:59:00;;;;;;;;;;;;;;;6.12;100.00;97865.66;5003499;28;19921;-87
2023/10/25 08:01:27;;;;;;;;;;;;;;;6.14;100.00;97862.03;5022508;28;21479;-89
2023/10/25 08:03:52;;;;;;;;;;;;;;;6.15;100.00;97866.34;5021771;28;19921;-90
2023/10/25 08:06:18;;;;;;;;;;;;;;;6.19;100.00;97859.16;5012764;28;19952;-91
2023/10/25 08:08:43;;;;;;;;;;;;;;;6.25;100.00;97850.06;5012749;28;19927;-90
2023/10/25 08:11:08;;;;;;;;;;;;;;;6.27;100.00;97854.31;5021746;28;20036;-91
2023/10/25 08:13:34;;;;;;;;;;;;;;;6.24;100.00;97853.59;5020559;28;19921;-90
2023/10/25 08:16:00;;;;;;;;;;;;;;;6.24;100.00;97837.84;5024024;28;19932;-91
2023/10/25 08:18:27;;;;;;;;;;;;;;;6.32;100.00;97838.28;5006389;28;19922;-90
2023/10/25 08:20:52;;;;;;;;;;;;;;;6.32;100.00;97839.09;5014442;28;19975;-91
2023/10/25 08:23:18;;;;;;;;;;;;;;;6.30;100.00;97835.72;5007537;28;19917;-90
2023/10/25 08:25:43;;;;;;;;;;;;;;;6.41;100.00;97826.38;5021567;28;19917;-91
2023/10/25 08:28:08;;;;;;;;;;;;;;;6.40;100.00;97822.91;5005703;28;19917;-88
2023/10/25 08:30:34;;;;;;;;;;;;;;;6.39;100.00;97820.34;5018960;28;19921;-94
2023/10/25 08:33:00;;;;;;;;;;;;;;;6.45;100.00;97806.84;5008187;28;20365;-91
2023/10/25 08:35:26;;;;;;;;;;;;;;;6.41;100.00;97810.59;5013829;28;20287;-91
2023/10/25 08:37:51;;;;;;;;;;;;;;;6.47;100.00;97810.22;5004606;28;19924;-89
2023/10/25 08:40:17;;;;;;;;;;;;;;;6.48;100.00;97798.78;5002557;28;19921;-90
2023/10/25 08:42:42;;;;;;;;;;;;;;;6.41;100.00;97810.59;5003680;28;19930;-90
2023/10/25 08:45:07;;;;;;;;;;;;;;;6.53;100.00;97791.47;5000238;28;20261;-90
2023/10/25 08:47:33;;;;;;;;;;;;;;;6.52;100.00;97787.97;5002104;28;20366;-87
2023/10/25 08:49:58;;;;;;;;;;;;;;;6.44;100.00;97784.09;5025066;28;19918;-89
2023/10/25 08:52:42;;;;;;;;;;;;;;;6.45;100.00;97783.19;5005898;28;20258;-93
2023/10/25 08:55:09;;;;;;;;;;;;;;;6.49;100.00;97769.75;5023727;28;20399;-92
2023/10/25 08:57:36;;;;;;;;;;;;;;;6.55;100.00;97765.91;5000905;28;20373;-90
2023/10/25 09:00:01;;;;;;;;;;;;;;;6.57;100.00;97748.22;5022471;28;19944;-90
2023/10/25 09:02:26;;;;;;;;;;;;;;;6.50;100.00;97754.81;5005145;28;20333;-87
2023/10/25 09:05:03;;;;;;;;;;;;;;;6.53;100.00;97754.63;5024225;28;20036;-90
2023/10/25 09:07:29;;;;;;;;;;;;;;;6.57;100.00;97750.03;5001044;28;20335;-90
2023/10/25 09:09:55;;;;;;;;;;;;;;;6.64;100.00;97752.22;5011460;28;20292;-89
2023/10/25 09:12:20;;;;;;;;;;;;;;;6.63;100.00;97750.50;5004125;28;19922;-88
2023/10/25 09:14:47;;;;;;;;;;;;;;;6.72;100.00;97739.44;5020324;28;19921;-87
2023/10/25 09:17:12;;;;;;;;;;;;;;;6.66;100.00;97723.16;5022492;28;20004;-89
2023/10/25 09:19:39;;;;;;;;;;;;;;;6.74;100.00;97718.28;5010754;28;20008;-86
2023/10/25 09:22:25;;;;;;;;;;;;;;;6.75;100.00;97713.84;5000980;28;19933;-92
2023/10/25 09:24:51;;;;;;;;;;;;;;;6.80;100.00;97707.38;5017672;28;19956;-89
2023/10/25 09:27:17;;;;;;;;;;;;;;;6.83;100.00;97714.25;5020645;28;19960;-88
2023/10/25 09:29:43;;;;;;;;;;;;;;;6.85;100.00;97704.47;5010283;28;20402;-89
2023/10/25 09:32:08;;;;;;;;;;;;;;;6.75;100.00;97705.97;5022039;28;20012;-88
2023/10/25 09:34:34;;;;;;;;;;;;;;;6.81;100.00;97708.22;5010550;28;20434;-89
2023/10/25 09:37:00;;;;;;;;;;;;;;;6.84;100.00;97700.16;5003859;28;20380;-88
2023/10/25 09:39:25;;;;;;;;;;;;;;;6.88;100.00;97691.13;5020123;28;19921;-89
2023/10/25 09:41:52;;;;;;;;;;;;;;;6.90;100.00;97691.88;5004230;28;19960;-88
2023/10/25 09:44:19;;;;;;;;;;;;;;;6.89;100.00;97680.50;5002795;28;20272;-89
2023/10/25 09:46:46;;;;;;;;;;;;;;;6.91;100.00;97691.78;5021773;28;20027;-89
2023/10/25 09:49:14;;;;;;;;;;;;;;;6.90;100.00;97684.81;5013484;28;20352;-89
2023/10/25 09:51:46;;;;;;;;;;;;;;;6.83;100.00;97678.25;5004680;28;20049;-89
2023/10/25 09:54:12;;;;;;;;;;;;;;;6.95;100.00;97668.75;5012378;28;20012;-89
2023/10/25 09:56:37;;;;;;;;;;;;;;;6.95;100.00;97671.38;5003337;28;19975;-89
2023/10/25 09:59:10;;;;;;;;;;;;;;;6.92;100.00;97661.03;5020689;28;19925;-91
2023/10/25 10:01:36;;;;;;;;;;;;;;;7.02;100.00;97654.28;5003018;28;20283;-89
2023/10/25 10:04:01;;;;;;;;;;;;;;;6.93;100.00;97657.47;5021821;28;19926;-92
2023/10/25 10:06:38;;;;;;;;;;;;;;;6.91;100.00;97648.81;5012543;28;19971;-92
2023/10/25 10:09:15;;;;;;;;;;;;;;;6.94;100.00;97653.91;5000127;28;20346;-89
2023/10/25 10:11:47;;;;;;;;;;;;;;;7.99;100.00;97647.19;5022167;28;20016;-96
2023/10/25 10:14:31;;;;;;;;;;;;;;;11.88;100.00;97640.56;5018910;28;19926;-88
2023/10/25 10:16:58;;;;;;;;;;;;;;;14.56;100.00;97603.00;5020106;28;19944;-91
2023/10/25 10:19:23;;;;;;;;;;;;;;;15.25;100.00;97599.13;5019834;28;19921;-90
2023/10/25 10:22:05;;;;;;;;;;;;;;;15.38;100.00;97588.13;4988070;28;19925;-85
2023/10/25 10:24:37;;;;;;;;;;;;;;;15.94;100.00;97585.38;5020290;28;20372;-91
2023/10/25 10:27:02;;;;;;;;;;;;;;;15.71;100.00;97584.94;5010101;28;20001;-87
2023/10/25 10:29:31;;;;;;;;;;;;;;;15.52;100.00;97585.91;5011578;28;20016;-82
2023/10/25 10:31:58;;;;;;;;;;;;;;;15.17;100.00;97590.19;5004389;28;19928;-88
2023/10/25 10:34:49;;;;;;;;;;;;;;;13.78;100.00;97595.09;5020816;28;19922;-85
2023/10/25 10:37:40;;;;;;;;;;;;;;;11.13;100.00;97605.06;5020059;28;19945;-91
2023/10/25 10:40:06;;;;;;;;;;;;;;;10.30;100.00;97612.34;5016535;28;20390;-84
2023/10/25 10:42:35;;;;;;;;;;;;;;;9.86;100.00;97611.25;5004692;28;19917;-85
2023/10/25 10:45:01;;;;;;;;;;;;;;;9.66;100.00;97610.09;5003296;28;19921;-84
2023/10/25 10:47:42;;;;;;;;;;;;;;;9.52;100.00;97602.31;5012284;28;19917;-85
2023/10/25 10:50:12;;;;;;;;;;;;;;;9.34;100.00;97588.66;5024710;28;19925;-88
2023/10/25 10:52:40;;;;;;;;;;;;;;;9.21;100.00;97589.53;5004169;28;19917;-86
2023/10/25 10:55:11;;;;;;;;;;;;;;;9.07;100.00;97587.03;5006924;28;19925;-92
2023/10/25 10:57:37;;;;;;;;;;;;;;;9.00;100.00;97593.72;5025794;28;19975;-88
2023/10/25 11:00:03;;;;;;;;;;;;;;;8.97;100.00;97586.03;5024902;28;19921;-86
2023/10/25 11:02:28;;;;;;;;;;;;;;;8.91;100.00;97577.56;5025621;28;19917;-86
2023/10/25 11:04:54;;;;;;;;;;;;;;;8.94;100.00;97570.41;5022191;28;20407;-94
2023/10/25 11:07:19;;;;;;;;;;;;;;;8.85;100.00;97566.59;5007114;28;19971;-84
2023/10/25 11:09:44;;;;;;;;;;;;;;;8.73;100.00;97552.47;5026489;28;19944;-84
2023/10/25 11:12:10;;;;;;;;;;;;;;;8.75;100.00;97555.84;5028970;28;19917;-88
2023/10/25 11:14:45;;;;;;;;;;;;;;;8.80;100.00;97551.06;5028967;28;20376;-84
2023/10/25 11:17:26;;;;;;;;;;;;;;;8.75;100.00;97550.56;5028527;28;19984;-90
2023/10/25 11:19:51;;;;;;;;;;;;;;;8.73;100.00;97541.91;5021703;28;19928;-88
2023/10/25 11:22:16;;;;;;;;;;;;;;;8.69;100.00;97538.63;5026182;28;19921;-86
2023/10/25 11:24:42;;;;;;;;;;;;;;;8.74;100.00;97538.31;5008109;28;19929;-88
2023/10/25 11:27:07;;;;;;;;;;;;;;;8.65;100.00;97533.72;5024248;28;20341;-92
2023/10/25 11:29:33;;;;;;;;;;;;;;;8.64;100.00;97529.38;5025124;28;19933;-87
2023/10/25 11:32:01;;;;;;;;;;;;;;;8.60;100.00;97525.25;5017234;28;20357;-85
2023/10/25 11:34:42;;;;;;;;;;;;;;;8.66;100.00;97527.44;5020004;28;19917;-94
2023/10/25 11:37:08;;;;;;;;;;;;;;;8.65;100.00;97525.78;5006180;28;19929;-87
2023/10/25 11:39:53;;;;;;;;;;;;;;;8.57;100.00;97520.19;5019066;28;19925;-91
2023/10/25 11:42:19;;;;;;;;;;;;;;;8.60;100.00;97520.81;5020230;28;19925;-87
2023/10/25 11:44:44;;;;;;;;;;;;;;;8.64;100.00;97521.44;5009699;28;19924;-87
2023/10/25 11:47:16;;;;;;;;;;;;;;;8.67;100.00;97511.50;5024307;28;20032;-85
2023/10/25 11:49:41;;;;;;;;;;;;;;;8.58;100.00;97512.16;5024354;28;20020;-85
2023/10/25 11:52:07;;;;;;;;;;;;;;;8.59;100.00;97505.94;5024446;28;20071;-87
2023/10/25 11:54:32;;;;;;;;;;;;;;;8.59;100.00;97498.00;5005920;28;19976;-88
2023/10/25 11:56:57;;;;;;;;;;;;;;;8.58;100.00;97501.59;5011195;28;19925;-87
2023/10/25 11:59:23;;;;;;;;;;;;;;;8.56;100.00;97492.13;5002259;28;19921;-92
2023/10/25 12:01:48;;;;;;;;;;;;;;;8.59;100.00;97487.44;5005229;28;19925;-94
2023/10/25 12:04:13;;;;;;;;;;;;;;;8.57;100.00;97483.22;5002751;28;19921;-87
2023/10/25 12:06:39;;;;;;;;;;;;;;;8.57;100.00;97486.72;5000395;28;19922;-88
2023/10/25 12:09:04;;;;;;;;;;;;;;;8.56;100.00;97476.28;5000007;28;20391;-85
2023/10/25 12:11:29;;;;;;;;;;;;;;;8.63;100.00;97481.00;5002133;28;19997;-84
2023/10/25 12:13:54;;;;;;;;;;;;;;;8.64;100.00;97473.94;5003435;28;19940;-84
2023/10/25 12:16:28;;;;;;;;;;;;;;;8.64;100.00;97480.03;5003367;28;19968;-91
2023/10/25 12:18:53;;;;;;;;;;;;;;;8.52;100.00;97470.34;5003961;28;20013;-88
2023/10/25 12:21:18;;;;;;;;;;;;;;;8.59;100.00;97471.63;5003813;28;20035;-87
2023/10/25 12:23:44;;;;;;;;;;;;;;;8.53;100.00;97474.69;5004250;28;20316;-87
2023/10/25 12:26:10;;;;;;;;;;;;;;;8.63;100.00;97477.50;5001621;28;19918;-87
2023/10/25 12:28:37;;;;;;;;;;;;;;;8.61;100.00;97471.50;5002892;28;20025;-87
2023/10/25 12:31:02;;;;;;;;;;;;;;;8.59;100.00;97474.25;5003559;28;20284;-87
2023/10/25 12:33:27;;;;;;;;;;;;;;;8.65;100.00;97470.34;5003927;28;19925;-86
2023/10/25 12:35:53;;;;;;;;;;;;;;;8.54;100.00;97458.75;5002592;28;19918;-87
2023/10/25 12:38:18;;;;;;;;;;;;;;;8.58;100.00;97458.53;5002031;28;19922;-86
2023/10/25 12:40:43;;;;;;;;;;;;;;;8.48;100.00;97443.34;5001210;28;19917;-87
2023/10/25 12:43:09;;;;;;;;;;;;;;;8.59;100.00;97445.22;5002416;28;20376;-88
2023/10/25 12:45:39;;;;;;;;;;;;;;;8.63;100.00;97438.78;5004428;28;19917;-87
2023/10/25 12:48:04;;;;;;;;;;;;;;;8.59;100.00;97433.81;5004335;28;19917;-88
2023/10/25 12:50:30;;;;;;;;;;;;;;;8.61;100.00;97434.56;5000997;28;19933;-88
2023/10/25 12:52:55;;;;;;;;;;;;;;;8.68;100.00;97439.28;5001132;28;19937;-85
2023/10/25 12:55:20;;;;;;;;;;;;;;;8.65;100.00;97434.22;4998791;28;19921;-86
2023/10/25 12:57:45;;;;;;;;;;;;;;;8.67;100.00;97429.66;5023043;28;20436;-87
2023/10/25 13:00:11;;;;;;;;;;;;;;;8.64;100.00;97421.13;5003517;28;19921;-87
2023/10/25 13:02:37;;;;;;;;;;;;;;;8.67;100.00;97416.47;5012926;28;20419;-89
2023/10/25 13:05:02;;;;;;;;;;;;;;;8.60;100.00;97420.53;5005170;28;19921;-87
2023/10/25 13:07:29;;;;;;;;;;;;;;;8.61;100.00;97421.34;5005231;28;19921;-85
2023/10/25 13:09:54;;;;;;;;;;;;;;;8.67;100.00;97418.28;5010555;28;19922;-88
2023/10/25 13:12:19;;;;;;;;;;;;;;;8.71;100.00;97412.66;5005077;28;19921;-84
2023/10/25 13:14:44;;;;;;;;;;;;;;;8.66;100.00;97413.94;5021021;28;20012;-89
2023/10/25 13:17:10;;;;;;;;;;;;;;;8.68;100.00;97420.81;5008396;28;20300;-90
2023/10/25 13:19:35;;;;;;;;;;;;;;;8.64;100.00;97415.84;5005187;28;19921;-87
2023/10/25 13:22:00;;;;;;;;;;;;;;;8.63;100.00;97419.44;5010242;28;19925;-91
2023/10/25 13:24:26;;;;;;;;;;;;;;;8.66;100.00;97409.53;5002139;28;19921;-89
2023/10/25 13:26:51;;;;;;;;;;;;;;;8.62;100.00;97396.66;5014609;28;19921;-88
2023/10/25 13:29:16;;;;;;;;;;;;;;;8.61;100.00;97400.22;5014446;28;19936;-91
2023/10/25 13:31:42;;;;;;;;;;;;;;;8.66;100.00;97382.25;5011374;28;20008;-87
2023/10/25 13:34:07;;;;;;;;;;;;;;;8.70;100.00;97391.66;5022453;28;19922;-90
2023/10/25 13:36:32;;;;;;;;;;;;;;;8.64;100.00;97385.00;5010817;28;20906;-90
2023/10/25 13:39:00;;;;;;;;;;;;;;;8.72;100.00;97392.38;5004112;28;20376;-95
2023/10/25 13:41:26;;;;;;;;;;;;;;;8.67;100.00;97391.88;5002057;28;19932;-86
2023/10/25 13:43:51;;;;;;;;;;;;;;;8.69;100.00;97377.59;5000218;28;19921;-85
2023/10/25 13:46:17;;;;;;;;;;;;;;;8.64;100.00;97378.91;5020253;28;19921;-84
2023/10/25 13:48:43;;;;;;;;;;;;;;;8.63;100.00;97372.78;5021873;28;19922;-85
2023/10/25 13:51:08;;;;;;;;;;;;;;;8.69;100.00;97374.94;5003195;28;20059;-89
2023/10/25 13:53:34;;;;;;;;;;;;;;;8.67;100.00;97368.94;5022923;28;20339;-86
2023/10/25 13:56:00;;;;;;;;;;;;;;;12.84;100.00;97377.47;5020828;28;19922;-87
2023/10/25 13:58:25;;;;;;;;;;;;;;;10.24;100.00;97371.97;5018181;28;19925;-87
2023/10/25 14:00:51;;;;;;;;;;;;;;;9.60;100.00;97373.41;5022221;28;20383;-87
2023/10/25 14:03:16;;;;;;;;;;;;;;;9.29;100.00;97360.91;5016153;28;19930;-85
2023/10/25 14:05:48;;;;;;;;;;;;;;;9.08;100.00;97365.03;5010480;28;20392;-84
2023/10/25 14:08:13;;;;;;;;;;;;;;;9.04;100.00;97370.66;5001155;28;19929;-86
2023/10/25 14:10:47;;;;;;;;;;;;;;;8.91;100.00;97358.34;5020711;28;19924;-91
2023/10/25 14:13:13;;;;;;;;;;;;;;;8.85;100.00;97350.06;5006150;28;20380;-90
2023/10/25 14:15:39;;;;;;;;;;;;;;;8.88;100.00;97342.75;5004473;28;19921;-91
2023/10/25 14:18:05;;;;;;;;;;;;;;;8.79;100.00;97342.59;5021309;28;19918;-84
2023/10/25 14:20:30;;;;;;;;;;;;;;;8.78;100.00;97354.13;5019656;28;20645;-85
2023/10/25 14:22:56;;;;;;;;;;;;;;;8.77;100.00;97357.72;5013289;28;19917;-92
2023/10/25 14:25:21;;;;;;;;;;;;;;;8.76;100.00;97370.09;5002430;28;19924;-87
2023/10/25 14:27:46;;;;;;;;;;;;;;;8.75;100.00;97397.44;5023438;28;20012;-87
2023/10/25 14:30:12;;;;;;;;;;;;;;;8.68;100.00;97393.53;5014169;28;19924;-93
2023/10/25 14:32:37;;;;;;;;;;;;;;;8.66;100.00;97391.03;5016817;28;19928;-87
2023/10/25 14:35:02;;;;;;;;;;;;;;;8.72;100.00;97369.44;5008980;28;20452;-87
2023/10/25 14:37:29;;;;;;;;;;;;;;;8.76;100.00;97370.09;5016867;28;19921;-91
2023/10/25 14:39:55;;;;;;;;;;;;;;;8.70;100.00;97362.59;5037494;23;19957;-91
2023/10/25 14:42:28;;;;;;;;;;;;;;;8.71;100.00;97361.63;5040026;23;19925;-93
2023/10/25 14:44:53;;;;;;;;;;;;;;;8.70;100.00;97358.16;5006500;28;19921;-88
2023/10/25 14:47:18;;;;;;;;;;;;;;;8.75;100.00;97362.28;5017512;28;19917;-90
2023/10/25 14:49:43;;;;;;;;;;;;;;;8.69;100.00;97361.75;5014522;28;20380;-86
2023/10/25 14:52:09;;;;;;;;;;;;;;;8.82;100.00;97351.16;5034632;28;19917;-87
2023/10/25 14:54:34;;;;;;;;;;;;;;;8.74;100.00;97340.28;5033030;28;19929;-88
2023/10/25 14:56:59;;;;;;;;;;;;;;;8.67;100.00;97337.28;5017480;28;19924;-87
2023/10/25 14:59:29;;;;;;;;;;;;;;;8.68;100.00;97335.47;5032603;28;20407;-86
2023/10/25 15:01:57;;;;;;;;;;;;;;;8.71;100.00;97343.16;5029026;28;20460;-93
2023/10/25 15:04:29;;;;;;;;;;;;;;;8.65;100.00;97341.81;5015964;28;19921;-88
2023/10/25 15:06:54;;;;;;;;;;;;;;;8.71;100.00;97356.34;5014377;28;19921;-88
2023/10/25 15:09:19;;;;;;;;;;;;;;;8.76;100.00;97354.25;5014775;28;19994;-88
2023/10/25 15:11:44;;;;;;;;;;;;;;;8.67;100.00;97347.81;5014190;28;19971;-88
2023/10/25 15:14:10;;;;;;;;;;;;;;;8.67;100.00;97352.28;5015967;28;19931;-88
2023/10/25 15:16:38;;;;;;;;;;;;;;;8.64;100.00;97363.88;5019109;28;20360;-96
2023/10/25 15:19:03;;;;;;;;;;;;;;;8.68;100.00;97353.94;5016878;28;20004;-87
2023/10/25 15:21:29;;;;;;;;;;;;;;;8.59;100.00;97344.09;5013345;28;20440;-87
2023/10/25 15:24:15;;;;;;;;;;;;;;;8.72;100.00;97323.72;5016724;28;19921;-94
2023/10/25 15:26:47;;;;;;;;;;;;;;;8.66;100.00;97316.25;5021129;28;19921;-92
2023/10/25 15:29:13;;;;;;;;;;;;;;;8.67;100.00;97334.63;5031714;28;19917;-90
2023/10/25 15:32:27;;;;;;;;;;;;;;;8.68;100.00;97320.47;5037079;28;19964;-93
2023/10/25 15:34:45;;;;;;;;;;;;;;;8.74;100.00;97308.59;5029340;28;20335;-85
2023/10/25 15:37:10;;;;;;;;;;;;;;;8.73;100.00;97305.13;5032885;28;19928;-89
2023/10/25 15:39:37;;;;;;;;;;;;;;;8.69;100.00;97302.84;5032813;28;19921;-87
2023/10/25 15:42:02;;;;;;;;;;;;;;;8.72;100.00;97303.44;5034281;28;20079;-87
2023/10/25 15:44:27;;;;;;;;;;;;;;;8.70;100.00;97305.38;5033963;28;20008;-87
2023/10/25 15:46:53;;;;;;;;;;;;;;;8.75;100.00;97301.53;5016589;28;19928;-86
2023/10/25 15:49:18;;;;;;;;;;;;;;;8.78;100.00;97307.44;5034209;28;19924;-86
2023/10/25 15:51:43;;;;;;;;;;;;;;;8.77;100.00;97305.75;5034208;28;19917;-86
2023/10/25 15:54:08;;;;;;;;;;;;;;;8.79;100.00;97303.84;5034148;28;19924;-86
2023/10/25 15:56:34;;;;;;;;;;;;;;;8.80;100.00;97304.69;5032748;28;19917;-86
2023/10/25 15:58:59;;;;;;;;;;;;;;;8.88;100.00;97297.84;5034008;28;19917;-86
2023/10/25 16:01:24;;;;;;;;;;;;;;;8.80;100.00;97296.75;5034130;28;19928;-86
2023/10/25 16:03:50;;;;;;;;;;;;;;;8.77;100.00;97289.91;5016110;28;20036;-86
2023/10/25 16:06:15;;;;;;;;;;;;;;;8.83;100.00;97305.28;5033861;28;19925;-86
2023/10/25 16:08:41;;;;;;;;;;;;;;;8.85;100.00;97297.25;5016005;28;19918;-87
2023/10/25 16:11:10;;;;;;;;;;;;;;;8.79;100.00;97297.72;5032507;28;19921;-86
2023/10/25 16:13:36;;;;;;;;;;;;;;;8.79;100.00;97298.56;5033225;28;19932;-86
2023/10/25 16:16:03;;;;;;;;;;;;;;;8.78;100.00;97307.44;5033639;28;19988;-86
2023/10/25 16:18:28;;;;;;;;;;;;;;;8.86;100.00;97302.41;5033621;28;19917;-86
2023/10/25 16:20:54;;;;;;;;;;;;;;;8.83;100.00;97305.28;5033696;28;20300;-86
2023/10/25 16:23:19;;;;;;;;;;;;;;;8.82;100.00;97311.53;5033553;28;20356;-87
2023/10/25 16:25:44;;;;;;;;;;;;;;;8.86;100.00;97310.34;5032421;28;19921;-85
2023/10/25 16:28:09;;;;;;;;;;;;;;;8.84;100.00;97314.91;5033440;28;19924;-85
2023/10/25 16:30:38;;;;;;;;;;;;;;;8.79;100.00;97316.19;5015482;28;19932;-85
2023/10/25 16:33:06;;;;;;;;;;;;;;;8.91;100.00;97317.91;5032550;28;19917;-86
2023/10/25 16:35:32;;;;;;;;;;;;;;;8.84;100.00;97322.81;5033192;28;19927;-86
2023/10/25 16:37:57;;;;;;;;;;;;;;;8.80;100.00;97316.06;5033130;28;19921;-86
2023/10/25 16:40:22;;;;;;;;;;;;;;;8.82;100.00;97330.03;5031890;28;20275;-86
2023/10/25 16:42:48;;;;;;;;;;;;;;;8.87;100.00;97319.94;5032933;28;19928;-86
2023/10/25 16:45:13;;;;;;;;;;;;;;;8.84;100.00;97327.25;5033215;28;19979;-87
2023/10/25 16:47:38;;;;;;;;;;;;;;;8.85;100.00;97327.13;5033192;28;20423;-86
2023/10/25 16:50:04;;;;;;;;;;;;;;;8.82;100.00;97326.53;5032909;28;20088;-88
2023/10/25 16:52:30;;;;;;;;;;;;;;;8.82;100.00;97324.75;5032067;28;19994;-88
2023/10/25 16:54:56;;;;;;;;;;;;;;;8.87;100.00;97325.22;5030978;28;19978;-88
2023/10/25 16:57:21;;;;;;;;;;;;;;;8.86;100.00;97335.91;5032760;28;20368;-88
2023/10/25 16:59:46;;;;;;;;;;;;;;;8.85;100.00;97340.31;5014975;28;19929;-88
2023/10/25 17:02:11;;;;;;;;;;;;;;;8.90;100.00;97345.28;5032815;28;19917;-87
2023/10/25 17:04:37;;;;;;;;;;;;;;;8.88;100.00;97344.56;5032762;28;19921;-86
2023/10/25 17:07:02;;;;;;;;;;;;;;;8.87;100.00;97356.06;5014922;28;19971;-86
2023/10/25 17:09:27;;;;;;;;;;;;;;;8.85;100.00;97361.44;5013674;28;19921;-86
2023/10/25 17:11:53;;;;;;;;;;;;;;;8.82;100.00;97369.63;5032596;28;19917;-85
2023/10/25 17:14:19;;;;;;;;;;;;;;;8.87;100.00;97375.41;5032525;28;20365;-87
2023/10/25 17:16:45;;;;;;;;;;;;;;;8.89;100.00;97378.78;5032309;28;19932;-84
2023/10/25 17:19:10;;;;;;;;;;;;;;;8.85;100.00;97384.38;5032400;28;19917;-86
2023/10/25 17:21:35;;;;;;;;;;;;;;;8.86;100.00;97394.84;5032265;28;20433;-88
2023/10/25 17:24:00;;;;;;;;;;;;;;;8.87;100.00;97391.25;5032522;28;19913;-86
2023/10/25 17:26:26;;;;;;;;;;;;;;;8.87;100.00;97399.19;5031214;28;19940;-87
2023/10/25 17:28:52;;;;;;;;;;;;;;;8.86;100.00;97407.22;5014566;28;19921;-88
2023/10/25 17:31:17;;;;;;;;;;;;;;;8.79;100.00;97414.75;5032232;28;19987;-86
2023/10/25 17:33:42;;;;;;;;;;;;;;;8.88;100.00;97418.50;5014532;28;19928;-88
2023/10/25 17:36:08;;;;;;;;;;;;;;;8.85;100.00;97418.72;5014604;28;20379;-87
2023/10/25 17:38:33;;;;;;;;;;;;;;;8.86;100.00;97421.25;5032008;28;19921;-86
2023/10/25 17:40:59;;;;;;;;;;;;;;;8.85;100.00;97440.69;5030831;28;19917;-87
2023/10/25 17:43:25;;;;;;;;;;;;;;;8.94;100.00;97438.34;5032131;28;20008;-86
2023/10/25 17:45:55;;;;;;;;;;;;;;;8.91;100.00;97445.50;5031961;28;19925;-86
2023/10/25 17:48:22;;;;;;;;;;;;;;;8.95;100.00;97456.72;5032241;28;20372;-87
2023/10/25 17:50:47;;;;;;;;;;;;;;;8.92;100.00;97467.50;5032002;28;20016;-88
2023/10/25 17:53:12;;;;;;;;;;;;;;;8.91;100.00;97463.16;5031929;28;19999;-86
2023/10/25 17:55:39;;;;;;;;;;;;;;;8.96;100.00;97479.50;5030795;28;19917;-86
2023/10/25 17:58:09;;;;;;;;;;;;;;;8.94;100.00;97481.44;5031859;28;20401;-85
2023/10/25 18:00:34;;;;;;;;;;;;;;;9.01;100.00;97492.38;5031674;28;20028;-85
2023/10/25 18:02:59;;;;;;;;;;;;;;;8.99;100.00;97494.31;5035785;28;20380;-87
2023/10/25 18:05:25;;;;;;;;;;;;;;;8.91;100.00;97498.34;5038567;28;19932;-87
2023/10/25 18:07:50;;;;;;;;;;;;;;;8.97;100.00;97501.50;5038475;28;20004;-85
2023/10/25 18:10:15;;;;;;;;;;;;;;;9.25;100.00;97510.88;5037258;28;19917;-85
2023/10/25 18:12:41;;;;;;;;;;;;;;;9.07;100.00;97516.56;5037517;28;19924;-85
2023/10/25 18:15:07;;;;;;;;;;;;;;;9.01;100.00;97519.63;5020536;28;19921;-85
2023/10/25 18:17:32;;;;;;;;;;;;;;;8.91;100.00;97535.31;5038306;28;19921;-85
2023/10/25 18:19:57;;;;;;;;;;;;;;;8.91;100.00;97529.19;5038371;28;19917;-85
2023/10/25 18:22:24;;;;;;;;;;;;;;;8.93;100.00;97543.13;5038447;28;19975;-85
2023/10/25 18:24:49;;;;;;;;;;;;;;;8.99;100.00;97547.13;5018949;28;19917;-85
2023/10/25 18:27:15;;;;;;;;;;;;;;;8.95;100.00;97549.16;5038369;28;20012;-84
2023/10/25 18:29:41;;;;;;;;;;;;;;;9.02;100.00;97558.31;5020051;28;19917;-85
2023/10/25 18:32:06;;;;;;;;;;;;;;;8.97;100.00;97563.09;5020553;28;19925;-84
2023/10/25 18:34:31;;;;;;;;;;;;;;;9.02;100.00;97565.41;5020443;28;19917;-85
2023/10/25 18:36:57;;;;;;;;;;;;;;;9.03;100.00;97564.44;5038221;28;19924;-84
2023/10/25 18:39:24;;;;;;;;;;;;;;;8.99;100.00;97574.38;5019261;28;20344;-83
2023/10/25 18:41:50;;;;;;;;;;;;;;;8.95;100.00;97582.63;5037723;28;19921;-84